Acadia Natl Park, Maine
Current Conditions -  °F | °C
As of 9:15 AM on Thursday 18 Dec 2014 (Local Time) from KBHB Reporting Station
Overcast Overcast  
Wind Chill: 24°   Ceiling: 1300
Heat Index: 32°   Visibility: 10mi
Dew Point: 32°   Wind: 9mph
Humidity: 100%   Direction: 330°NNW
Pressure: 29.6"   Gusts: NA
Location:  44.3°N, 68.25°W
Report Text: KBHB 181415Z AUTO 33008KT 10SM BKN013 OVC037 00/00 A2960 RMK AO1
Loading
Personal Weather Stations






























Interactive Weather Map New forecast layout! Learn more

10-Day Weather Forecast

Advertisements
Track Severe Weather on mobile